sensor_id;sensor_type;location;lat;lon;timestamp;P1;durP1;ratioP1;P2;durP2;ratioP2
80936;SDS011;70395;51.382;7.074;2023-07-20T00:02:00;6.50;;;5.73;;
80936;SDS011;70395;51.382;7.074;2023-07-20T00:04:27;7.80;;;6.20;;
80936;SDS011;70395;51.382;7.074;2023-07-20T00:06:53;7.70;;;5.90;;
80936;SDS011;70395;51.382;7.074;2023-07-20T00:09:19;7.57;;;6.10;;
80936;SDS011;70395;51.382;7.074;2023-07-20T00:11:50;6.83;;;6.20;;
80936;SDS011;70395;51.382;7.074;2023-07-20T00:14:16;7.87;;;5.57;;
80936;SDS011;70395;51.382;7.074;2023-07-20T00:16:43;11.37;;;6.10;;
80936;SDS011;70395;51.382;7.074;2023-07-20T00:19:11;10.40;;;6.60;;
80936;SDS011;70395;51.382;7.074;2023-07-20T00:21:38;11.73;;;7.70;;
80936;SDS011;70395;51.382;7.074;2023-07-20T00:24:07;9.60;;;6.83;;
80936;SDS011;70395;51.382;7.074;2023-07-20T00:26:33;6.83;;;6.13;;
80936;SDS011;70395;51.382;7.074;2023-07-20T00:28:59;7.13;;;6.40;;
80936;SDS011;70395;51.382;7.074;2023-07-20T00:31:25;7.47;;;6.70;;
80936;SDS011;70395;51.382;7.074;2023-07-20T00:33:51;9.23;;;6.70;;
80936;SDS011;70395;51.382;7.074;2023-07-20T00:36:17;8.87;;;7.00;;
80936;SDS011;70395;51.382;7.074;2023-07-20T00:38:43;9.07;;;6.97;;
80936;SDS011;70395;51.382;7.074;2023-07-20T00:41:09;9.00;;;7.93;;
80936;SDS011;70395;51.382;7.074;2023-07-20T00:43:35;8.90;;;6.73;;
80936;SDS011;70395;51.382;7.074;2023-07-20T00:46:00;8.77;;;7.10;;
80936;SDS011;70395;51.382;7.074;2023-07-20T00:48:28;11.40;;;7.90;;
80936;SDS011;70395;51.382;7.074;2023-07-20T00:50:55;13.07;;;7.50;;
80936;SDS011;70395;51.382;7.074;2023-07-20T00:53:24;18.67;;;8.50;;
80936;SDS011;70395;51.382;7.074;2023-07-20T00:55:50;9.20;;;7.23;;
80936;SDS011;70395;51.382;7.074;2023-07-20T00:58:16;10.13;;;8.27;;
80936;SDS011;70395;51.382;7.074;2023-07-20T01:00:41;12.90;;;7.83;;
80936;SDS011;70395;51.382;7.074;2023-07-20T01:03:07;13.13;;;8.90;;
80936;SDS011;70395;51.382;7.074;2023-07-20T01:05:35;13.87;;;8.70;;
80936;SDS011;70395;51.382;7.074;2023-07-20T01:08:17;10.07;;;8.03;;
80936;SDS011;70395;51.382;7.074;2023-07-20T01:12:14;11.33;;;8.17;;
80936;SDS011;70395;51.382;7.074;2023-07-20T01:14:24;11.87;;;7.40;;
80936;SDS011;70395;51.382;7.074;2023-07-20T01:16:51;13.33;;;7.93;;
80936;SDS011;70395;51.382;7.074;2023-07-20T01:19:17;7.73;;;6.43;;
80936;SDS011;70395;51.382;7.074;2023-07-20T01:21:45;7.70;;;6.90;;
80936;SDS011;70395;51.382;7.074;2023-07-20T01:33:07;8.50;;;6.80;;
80936;SDS011;70395;51.382;7.074;2023-07-20T01:35:36;11.87;;;7.10;;
80936;SDS011;70395;51.382;7.074;2023-07-20T01:38:08;8.00;;;6.30;;
80936;SDS011;70395;51.382;7.074;2023-07-20T01:40:36;9.80;;;6.37;;
80936;SDS011;70395;51.382;7.074;2023-07-20T01:43:02;6.93;;;5.70;;
80936;SDS011;70395;51.382;7.074;2023-07-20T01:45:28;8.53;;;6.33;;
80936;SDS011;70395;51.382;7.074;2023-07-20T01:47:54;13.20;;;7.33;;
80936;SDS011;70395;51.382;7.074;2023-07-20T01:50:20;9.53;;;6.30;;
80936;SDS011;70395;51.382;7.074;2023-07-20T01:52:45;10.60;;;5.90;;
80936;SDS011;70395;51.382;7.074;2023-07-20T01:55:11;8.60;;;6.53;;
80936;SDS011;70395;51.382;7.074;2023-07-20T01:57:37;7.63;;;6.27;;
80936;SDS011;70395;51.382;7.074;2023-07-20T02:00:03;9.70;;;8.00;;
80936;SDS011;70395;51.382;7.074;2023-07-20T02:02:29;8.30;;;6.27;;
80936;SDS011;70395;51.382;7.074;2023-07-20T02:04:55;8.93;;;6.90;;
80936;SDS011;70395;51.382;7.074;2023-07-20T02:07:21;11.20;;;6.93;;
80936;SDS011;70395;51.382;7.074;2023-07-20T02:09:47;8.80;;;6.57;;
80936;SDS011;70395;51.382;7.074;2023-07-20T02:12:13;9.87;;;6.57;;
80936;SDS011;70395;51.382;7.074;2023-07-20T02:14:38;12.63;;;7.50;;
80936;SDS011;70395;51.382;7.074;2023-07-20T02:17:04;9.93;;;7.30;;
80936;SDS011;70395;51.382;7.074;2023-07-20T02:19:30;13.83;;;8.30;;
80936;SDS011;70395;51.382;7.074;2023-07-20T02:21:56;13.83;;;6.50;;
80936;SDS011;70395;51.382;7.074;2023-07-20T02:24:22;11.30;;;7.50;;
80936;SDS011;70395;51.382;7.074;2023-07-20T02:26:50;14.43;;;9.90;;
80936;SDS011;70395;51.382;7.074;2023-07-20T02:29:15;10.37;;;6.97;;
80936;SDS011;70395;51.382;7.074;2023-07-20T02:31:41;11.43;;;9.03;;
80936;SDS011;70395;51.382;7.074;2023-07-20T02:34:08;12.13;;;8.90;;
80936;SDS011;70395;51.382;7.074;2023-07-20T02:36:34;11.00;;;7.90;;
80936;SDS011;70395;51.382;7.074;2023-07-20T02:39:01;9.57;;;7.90;;
80936;SDS011;70395;51.382;7.074;2023-07-20T02:41:29;10.10;;;8.30;;
80936;SDS011;70395;51.382;7.074;2023-07-20T02:43:58;9.63;;;8.33;;
80936;SDS011;70395;51.382;7.074;2023-07-20T02:46:24;9.97;;;6.80;;
80936;SDS011;70395;51.382;7.074;2023-07-20T02:48:49;10.50;;;8.30;;
80936;SDS011;70395;51.382;7.074;2023-07-20T02:51:15;11.50;;;8.20;;
80936;SDS011;70395;51.382;7.074;2023-07-20T02:53:41;15.20;;;8.60;;
80936;SDS011;70395;51.382;7.074;2023-07-20T02:56:07;10.47;;;8.90;;
80936;SDS011;70395;51.382;7.074;2023-07-20T02:58:35;12.20;;;7.93;;
80936;SDS011;70395;51.382;7.074;2023-07-20T03:01:08;12.87;;;9.07;;
80936;SDS011;70395;51.382;7.074;2023-07-20T03:03:36;10.90;;;8.30;;
80936;SDS011;70395;51.382;7.074;2023-07-20T03:06:06;10.07;;;8.50;;
80936;SDS011;70395;51.382;7.074;2023-07-20T03:08:34;10.20;;;8.30;;
80936;SDS011;70395;51.382;7.074;2023-07-20T03:11:01;9.77;;;8.50;;
80936;SDS011;70395;51.382;7.074;2023-07-20T03:13:26;12.17;;;8.97;;
80936;SDS011;70395;51.382;7.074;2023-07-20T03:15:53;9.53;;;8.30;;
80936;SDS011;70395;51.382;7.074;2023-07-20T03:18:18;13.00;;;8.50;;
80936;SDS011;70395;51.382;7.074;2023-07-20T03:20:44;9.30;;;8.30;;
80936;SDS011;70395;51.382;7.074;2023-07-20T03:23:11;10.90;;;8.00;;
80936;SDS011;70395;51.382;7.074;2023-07-20T03:25:37;11.77;;;8.40;;
80936;SDS011;70395;51.382;7.074;2023-07-20T03:28:03;9.23;;;7.73;;
80936;SDS011;70395;51.382;7.074;2023-07-20T03:30:29;11.50;;;8.37;;
80936;SDS011;70395;51.382;7.074;2023-07-20T03:32:55;10.67;;;9.00;;
80936;SDS011;70395;51.382;7.074;2023-07-20T03:35:21;12.17;;;9.57;;
80936;SDS011;70395;51.382;7.074;2023-07-20T03:37:47;11.37;;;7.93;;
80936;SDS011;70395;51.382;7.074;2023-07-20T03:40:13;10.17;;;9.10;;
80936;SDS011;70395;51.382;7.074;2023-07-20T03:42:39;12.73;;;8.13;;
80936;SDS011;70395;51.382;7.074;2023-07-20T03:45:06;13.70;;;8.93;;
80936;SDS011;70395;51.382;7.074;2023-07-20T03:47:32;11.37;;;8.57;;
80936;SDS011;70395;51.382;7.074;2023-07-20T03:49:58;12.37;;;9.03;;
80936;SDS011;70395;51.382;7.074;2023-07-20T03:52:24;12.10;;;8.73;;
80936;SDS011;70395;51.382;7.074;2023-07-20T03:54:50;11.10;;;9.70;;
80936;SDS011;70395;51.382;7.074;2023-07-20T03:57:18;15.53;;;10.90;;
80936;SDS011;70395;51.382;7.074;2023-07-20T03:59:44;13.40;;;10.50;;
80936;SDS011;70395;51.382;7.074;2023-07-20T04:02:11;14.43;;;10.00;;
80936;SDS011;70395;51.382;7.074;2023-07-20T04:04:37;13.57;;;10.00;;
80936;SDS011;70395;51.382;7.074;2023-07-20T04:07:02;12.30;;;10.00;;
80936;SDS011;70395;51.382;7.074;2023-07-20T04:09:29;14.67;;;11.17;;
80936;SDS011;70395;51.382;7.074;2023-07-20T04:11:56;13.60;;;10.73;;
80936;SDS011;70395;51.382;7.074;2023-07-20T04:14:22;11.80;;;9.40;;
80936;SDS011;70395;51.382;7.074;2023-07-20T04:16:48;13.60;;;10.40;;
80936;SDS011;70395;51.382;7.074;2023-07-20T04:19:16;10.60;;;9.47;;
80936;SDS011;70395;51.382;7.074;2023-07-20T04:21:43;16.17;;;11.60;;
80936;SDS011;70395;51.382;7.074;2023-07-20T04:24:09;14.27;;;10.30;;
80936;SDS011;70395;51.382;7.074;2023-07-20T04:26:34;15.53;;;11.43;;
80936;SDS011;70395;51.382;7.074;2023-07-20T04:29:01;12.90;;;8.97;;
80936;SDS011;70395;51.382;7.074;2023-07-20T04:31:28;11.87;;;10.40;;
80936;SDS011;70395;51.382;7.074;2023-07-20T04:33:57;14.67;;;10.40;;
80936;SDS011;70395;51.382;7.074;2023-07-20T04:36:23;13.10;;;9.60;;
80936;SDS011;70395;51.382;7.074;2023-07-20T04:38:48;12.10;;;10.67;;
80936;SDS011;70395;51.382;7.074;2023-07-20T04:41:14;14.70;;;12.00;;
80936;SDS011;70395;51.382;7.074;2023-07-20T04:43:43;13.93;;;12.47;;
80936;SDS011;70395;51.382;7.074;2023-07-20T04:46:10;15.13;;;12.50;;
80936;SDS011;70395;51.382;7.074;2023-07-20T04:48:36;14.73;;;11.77;;
80936;SDS011;70395;51.382;7.074;2023-07-20T04:51:03;14.50;;;11.63;;
80936;SDS011;70395;51.382;7.074;2023-07-20T04:53:29;14.10;;;12.70;;
80936;SDS011;70395;51.382;7.074;2023-07-20T04:55:56;15.43;;;13.83;;
80936;SDS011;70395;51.382;7.074;2023-07-20T04:58:22;15.63;;;12.73;;
80936;SDS011;70395;51.382;7.074;2023-07-20T05:00:48;16.40;;;14.80;;
80936;SDS011;70395;51.382;7.074;2023-07-20T05:03:16;16.17;;;14.43;;
80936;SDS011;70395;51.382;7.074;2023-07-20T05:05:42;20.17;;;14.30;;
80936;SDS011;70395;51.382;7.074;2023-07-20T05:08:09;17.80;;;15.90;;
80936;SDS011;70395;51.382;7.074;2023-07-20T05:10:34;18.50;;;15.80;;
80936;SDS011;70395;51.382;7.074;2023-07-20T05:13:00;18.77;;;16.77;;
80936;SDS011;70395;51.382;7.074;2023-07-20T05:15:26;18.90;;;16.77;;
80936;SDS011;70395;51.382;7.074;2023-07-20T05:17:52;19.17;;;17.20;;
80936;SDS011;70395;51.382;7.074;2023-07-20T05:20:18;15.37;;;13.77;;
80936;SDS011;70395;51.382;7.074;2023-07-20T05:22:45;18.27;;;16.47;;
80936;SDS011;70395;51.382;7.074;2023-07-20T05:25:10;21.20;;;18.10;;
80936;SDS011;70395;51.382;7.074;2023-07-20T05:27:37;19.13;;;17.27;;
80936;SDS011;70395;51.382;7.074;2023-07-20T05:30:05;20.00;;;17.80;;
80936;SDS011;70395;51.382;7.074;2023-07-20T05:32:34;18.13;;;16.33;;
80936;SDS011;70395;51.382;7.074;2023-07-20T05:35:00;19.73;;;17.73;;
80936;SDS011;70395;51.382;7.074;2023-07-20T05:37:26;18.93;;;16.93;;
80936;SDS011;70395;51.382;7.074;2023-07-20T05:39:52;18.40;;;16.60;;
80936;SDS011;70395;51.382;7.074;2023-07-20T05:42:17;20.00;;;18.10;;
80936;SDS011;70395;51.382;7.074;2023-07-20T05:44:43;20.20;;;17.77;;
80936;SDS011;70395;51.382;7.074;2023-07-20T05:47:09;19.13;;;17.10;;
80936;SDS011;70395;51.382;7.074;2023-07-20T05:49:35;17.57;;;15.80;;
80936;SDS011;70395;51.382;7.074;2023-07-20T05:52:01;13.63;;;12.23;;
80936;SDS011;70395;51.382;7.074;2023-07-20T05:54:27;15.23;;;13.67;;
80936;SDS011;70395;51.382;7.074;2023-07-20T05:56:53;16.33;;;14.30;;
80936;SDS011;70395;51.382;7.074;2023-07-20T05:59:19;16.57;;;14.90;;
80936;SDS011;70395;51.382;7.074;2023-07-20T06:01:45;16.20;;;14.60;;
80936;SDS011;70395;51.382;7.074;2023-07-20T06:04:14;16.20;;;14.70;;
80936;SDS011;70395;51.382;7.074;2023-07-20T06:06:41;16.60;;;15.20;;
80936;SDS011;70395;51.382;7.074;2023-07-20T06:09:07;17.00;;;15.30;;
80936;SDS011;70395;51.382;7.074;2023-07-20T06:11:37;16.40;;;14.70;;
80936;SDS011;70395;51.382;7.074;2023-07-20T06:14:05;16.60;;;15.00;;
80936;SDS011;70395;51.382;7.074;2023-07-20T06:16:31;16.67;;;15.20;;
80936;SDS011;70395;51.382;7.074;2023-07-20T06:18:58;18.03;;;16.23;;
80936;SDS011;70395;51.382;7.074;2023-07-20T06:21:25;17.70;;;16.10;;
80936;SDS011;70395;51.382;7.074;2023-07-20T06:23:51;15.70;;;14.20;;
80936;SDS011;70395;51.382;7.074;2023-07-20T06:26:17;17.77;;;14.40;;
80936;SDS011;70395;51.382;7.074;2023-07-20T06:28:42;16.67;;;14.97;;
80936;SDS011;70395;51.382;7.074;2023-07-20T06:31:08;15.00;;;13.60;;
80936;SDS011;70395;51.382;7.074;2023-07-20T06:33:34;14.27;;;12.87;;
80936;SDS011;70395;51.382;7.074;2023-07-20T06:36:00;12.83;;;11.63;;
80936;SDS011;70395;51.382;7.074;2023-07-20T06:38:26;13.30;;;11.90;;
80936;SDS011;70395;51.382;7.074;2023-07-20T06:40:52;10.43;;;9.47;;
80936;SDS011;70395;51.382;7.074;2023-07-20T06:43:18;12.27;;;11.13;;
80936;SDS011;70395;51.382;7.074;2023-07-20T06:45:44;12.00;;;10.93;;
80936;SDS011;70395;51.382;7.074;2023-07-20T06:48:09;12.73;;;11.57;;
80936;SDS011;70395;51.382;7.074;2023-07-20T06:50:35;10.83;;;9.80;;
80936;SDS011;70395;51.382;7.074;2023-07-20T06:53:01;9.50;;;8.80;;
80936;SDS011;70395;51.382;7.074;2023-07-20T06:55:29;9.43;;;8.50;;
80936;SDS011;70395;51.382;7.074;2023-07-20T06:57:55;8.90;;;8.10;;
80936;SDS011;70395;51.382;7.074;2023-07-20T07:00:20;8.87;;;8.07;;
80936;SDS011;70395;51.382;7.074;2023-07-20T07:02:46;8.57;;;7.83;;
80936;SDS011;70395;51.382;7.074;2023-07-20T07:05:12;8.60;;;7.80;;
80936;SDS011;70395;51.382;7.074;2023-07-20T07:07:40;10.67;;;9.77;;
80936;SDS011;70395;51.382;7.074;2023-07-20T07:10:06;9.73;;;8.80;;
80936;SDS011;70395;51.382;7.074;2023-07-20T07:12:32;10.37;;;9.47;;
80936;SDS011;70395;51.382;7.074;2023-07-20T07:14:58;9.47;;;8.67;;
80936;SDS011;70395;51.382;7.074;2023-07-20T07:17:25;11.90;;;10.80;;
80936;SDS011;70395;51.382;7.074;2023-07-20T07:19:51;11.67;;;10.57;;
80936;SDS011;70395;51.382;7.074;2023-07-20T07:22:21;9.73;;;8.77;;
80936;SDS011;70395;51.382;7.074;2023-07-20T07:24:47;10.80;;;9.70;;
80936;SDS011;70395;51.382;7.074;2023-07-20T07:27:13;13.10;;;10.40;;
80936;SDS011;70395;51.382;7.074;2023-07-20T07:29:41;10.70;;;9.70;;
80936;SDS011;70395;51.382;7.074;2023-07-20T07:32:09;9.87;;;9.07;;
80936;SDS011;70395;51.382;7.074;2023-07-20T07:34:36;11.33;;;10.43;;
80936;SDS011;70395;51.382;7.074;2023-07-20T07:37:02;12.50;;;11.40;;
80936;SDS011;70395;51.382;7.074;2023-07-20T07:39:30;13.47;;;12.37;;
80936;SDS011;70395;51.382;7.074;2023-07-20T07:41:56;14.27;;;13.07;;
80936;SDS011;70395;51.382;7.074;2023-07-20T07:44:22;13.60;;;12.43;;
80936;SDS011;70395;51.382;7.074;2023-07-20T07:46:48;12.63;;;11.73;;
80936;SDS011;70395;51.382;7.074;2023-07-20T07:49:15;14.10;;;13.00;;
80936;SDS011;70395;51.382;7.074;2023-07-20T07:51:41;15.17;;;13.67;;
80936;SDS011;70395;51.382;7.074;2023-07-20T07:54:07;12.47;;;11.47;;
80936;SDS011;70395;51.382;7.074;2023-07-20T07:56:33;14.17;;;13.17;;
80936;SDS011;70395;51.382;7.074;2023-07-20T07:58:59;13.50;;;12.30;;
80936;SDS011;70395;51.382;7.074;2023-07-20T08:01:25;11.67;;;10.80;;
80936;SDS011;70395;51.382;7.074;2023-07-20T08:03:50;12.10;;;11.20;;
80936;SDS011;70395;51.382;7.074;2023-07-20T08:06:16;10.67;;;9.70;;
80936;SDS011;70395;51.382;7.074;2023-07-20T08:08:42;12.40;;;11.43;;
80936;SDS011;70395;51.382;7.074;2023-07-20T08:11:08;14.07;;;12.97;;
80936;SDS011;70395;51.382;7.074;2023-07-20T08:13:34;14.07;;;13.00;;
80936;SDS011;70395;51.382;7.074;2023-07-20T08:16:02;13.17;;;12.17;;
80936;SDS011;70395;51.382;7.074;2023-07-20T08:18:28;9.70;;;8.90;;
80936;SDS011;70395;51.382;7.074;2023-07-20T08:20:54;10.10;;;9.40;;
80936;SDS011;70395;51.382;7.074;2023-07-20T08:23:20;8.13;;;7.43;;
80936;SDS011;70395;51.382;7.074;2023-07-20T08:25:46;7.70;;;7.20;;
80936;SDS011;70395;51.382;7.074;2023-07-20T08:28:15;4.13;;;3.80;;
80936;SDS011;70395;51.382;7.074;2023-07-20T08:30:42;4.17;;;3.87;;
80936;SDS011;70395;51.382;7.074;2023-07-20T08:33:13;4.90;;;4.60;;
80936;SDS011;70395;51.382;7.074;2023-07-20T08:35:41;6.97;;;6.47;;
80936;SDS011;70395;51.382;7.074;2023-07-20T08:38:08;6.17;;;5.60;;
80936;SDS011;70395;51.382;7.074;2023-07-20T08:40:35;5.53;;;5.00;;
80936;SDS011;70395;51.382;7.074;2023-07-20T08:43:06;4.20;;;3.90;;
80936;SDS011;70395;51.382;7.074;2023-07-20T08:45:33;3.00;;;2.80;;
80936;SDS011;70395;51.382;7.074;2023-07-20T08:48:01;3.17;;;2.97;;
80936;SDS011;70395;51.382;7.074;2023-07-20T08:50:30;3.80;;;2.80;;
80936;SDS011;70395;51.382;7.074;2023-07-20T08:52:57;3.43;;;3.13;;
80936;SDS011;70395;51.382;7.074;2023-07-20T08:55:25;3.33;;;3.03;;
80936;SDS011;70395;51.382;7.074;2023-07-20T08:57:55;4.10;;;3.80;;
80936;SDS011;70395;51.382;7.074;2023-07-20T09:00:24;5.47;;;5.07;;
80936;SDS011;70395;51.382;7.074;2023-07-20T09:02:54;5.57;;;4.33;;
80936;SDS011;70395;51.382;7.074;2023-07-20T09:05:22;4.90;;;4.50;;
80936;SDS011;70395;51.382;7.074;2023-07-20T09:07:52;4.87;;;4.57;;
80936;SDS011;70395;51.382;7.074;2023-07-20T09:10:21;4.40;;;4.10;;
80936;SDS011;70395;51.382;7.074;2023-07-20T09:12:49;3.93;;;3.63;;
80936;SDS011;70395;51.382;7.074;2023-07-20T09:15:15;3.40;;;3.20;;
80936;SDS011;70395;51.382;7.074;2023-07-20T09:17:48;2.63;;;2.43;;
80936;SDS011;70395;51.382;7.074;2023-07-20T09:20:16;3.50;;;3.20;;
80936;SDS011;70395;51.382;7.074;2023-07-20T09:22:43;3.33;;;2.83;;
80936;SDS011;70395;51.382;7.074;2023-07-20T09:25:13;3.03;;;2.73;;
80936;SDS011;70395;51.382;7.074;2023-07-20T09:27:43;3.60;;;3.30;;
80936;SDS011;70395;51.382;7.074;2023-07-20T09:30:14;3.80;;;2.77;;
80936;SDS011;70395;51.382;7.074;2023-07-20T09:32:44;2.80;;;2.60;;
80936;SDS011;70395;51.382;7.074;2023-07-20T09:35:16;3.20;;;2.90;;
80936;SDS011;70395;51.382;7.074;2023-07-20T09:40:20;3.17;;;2.87;;
80936;SDS011;70395;51.382;7.074;2023-07-20T09:42:46;3.13;;;2.83;;
80936;SDS011;70395;51.382;7.074;2023-07-20T09:45:13;3.70;;;2.07;;
80936;SDS011;70395;51.382;7.074;2023-07-20T09:47:39;2.40;;;2.20;;
80936;SDS011;70395;51.382;7.074;2023-07-20T09:50:06;2.33;;;1.90;;
80936;SDS011;70395;51.382;7.074;2023-07-20T09:52:40;1.90;;;1.70;;
80936;SDS011;70395;51.382;7.074;2023-07-20T09:55:09;4.33;;;1.90;;
80936;SDS011;70395;51.382;7.074;2023-07-20T09:57:37;2.00;;;1.80;;
80936;SDS011;70395;51.382;7.074;2023-07-20T10:00:04;1.70;;;1.20;;
80936;SDS011;70395;51.382;7.074;2023-07-20T10:02:40;3.10;;;1.30;;
80936;SDS011;70395;51.382;7.074;2023-07-20T10:05:10;1.17;;;0.80;;
80936;SDS011;70395;51.382;7.074;2023-07-20T10:07:47;3.30;;;1.00;;
80936;SDS011;70395;51.382;7.074;2023-07-20T10:10:16;2.23;;;1.00;;
80936;SDS011;70395;51.382;7.074;2023-07-20T10:12:44;1.40;;;1.10;;
80936;SDS011;70395;51.382;7.074;2023-07-20T10:15:17;3.30;;;1.10;;
80936;SDS011;70395;51.382;7.074;2023-07-20T10:17:59;4.17;;;1.10;;
80936;SDS011;70395;51.382;7.074;2023-07-20T10:20:29;1.63;;;1.10;;
80936;SDS011;70395;51.382;7.074;2023-07-20T10:22:58;1.40;;;0.87;;
80936;SDS011;70395;51.382;7.074;2023-07-20T10:25:25;2.27;;;1.10;;
80936;SDS011;70395;51.382;7.074;2023-07-20T10:27:54;1.70;;;1.00;;
80936;SDS011;70395;51.382;7.074;2023-07-20T10:30:22;1.33;;;1.13;;
80936;SDS011;70395;51.382;7.074;2023-07-20T10:32:49;1.27;;;0.97;;
80936;SDS011;70395;51.382;7.074;2023-07-20T10:35:18;1.70;;;1.13;;
80936;SDS011;70395;51.382;7.074;2023-07-20T10:37:50;1.37;;;1.10;;
80936;SDS011;70395;51.382;7.074;2023-07-20T10:40:34;2.03;;;1.27;;
80936;SDS011;70395;51.382;7.074;2023-07-20T10:43:04;1.30;;;1.10;;
80936;SDS011;70395;51.382;7.074;2023-07-20T10:45:33;1.50;;;0.93;;
80936;SDS011;70395;51.382;7.074;2023-07-20T10:48:02;1.10;;;0.80;;
80936;SDS011;70395;51.382;7.074;2023-07-20T10:50:31;1.30;;;1.00;;
80936;SDS011;70395;51.382;7.074;2023-07-20T10:53:09;2.13;;;0.83;;
80936;SDS011;70395;51.382;7.074;2023-07-20T10:55:43;1.33;;;1.00;;
80936;SDS011;70395;51.382;7.074;2023-07-20T10:58:18;1.40;;;1.20;;
80936;SDS011;70395;51.382;7.074;2023-07-20T11:01:01;1.80;;;1.10;;
80936;SDS011;70395;51.382;7.074;2023-07-20T11:03:36;2.67;;;2.27;;
80936;SDS011;70395;51.382;7.074;2023-07-20T11:11:29;1.30;;;1.20;;
80936;SDS011;70395;51.382;7.074;2023-07-20T11:14:03;3.10;;;1.70;;
80936;SDS011;70395;51.382;7.074;2023-07-20T11:19:22;2.23;;;1.60;;
80936;SDS011;70395;51.382;7.074;2023-07-20T11:21:50;2.33;;;1.90;;
80936;SDS011;70395;51.382;7.074;2023-07-20T11:24:19;1.90;;;1.70;;
80936;SDS011;70395;51.382;7.074;2023-07-20T11:26:46;2.33;;;2.00;;
80936;SDS011;70395;51.382;7.074;2023-07-20T11:29:15;2.20;;;2.00;;
80936;SDS011;70395;51.382;7.074;2023-07-20T11:31:44;1.80;;;1.70;;
80936;SDS011;70395;51.382;7.074;2023-07-20T11:34:12;2.10;;;1.63;;
80936;SDS011;70395;51.382;7.074;2023-07-20T11:36:40;1.70;;;1.60;;
80936;SDS011;70395;51.382;7.074;2023-07-20T11:39:12;1.80;;;1.70;;
80936;SDS011;70395;51.382;7.074;2023-07-20T11:41:46;2.17;;;1.97;;
80936;SDS011;70395;51.382;7.074;2023-07-20T11:44:20;2.00;;;1.90;;
80936;SDS011;70395;51.382;7.074;2023-07-20T11:49:41;2.20;;;2.00;;
80936;SDS011;70395;51.382;7.074;2023-07-20T11:52:13;2.40;;;2.20;;
80936;SDS011;70395;51.382;7.074;2023-07-20T11:54:42;2.60;;;2.40;;
80936;SDS011;70395;51.382;7.074;2023-07-20T11:57:19;2.87;;;2.67;;
80936;SDS011;70395;51.382;7.074;2023-07-20T11:59:54;5.17;;;2.70;;
80936;SDS011;70395;51.382;7.074;2023-07-20T12:02:22;2.30;;;2.10;;
80936;SDS011;70395;51.382;7.074;2023-07-20T12:04:51;2.80;;;2.37;;
80936;SDS011;70395;51.382;7.074;2023-07-20T12:07:19;1.93;;;1.80;;
80936;SDS011;70395;51.382;7.074;2023-07-20T12:10:02;1.80;;;1.70;;
80936;SDS011;70395;51.382;7.074;2023-07-20T12:12:31;2.60;;;1.90;;
80936;SDS011;70395;51.382;7.074;2023-07-20T12:17:55;2.50;;;2.30;;
80936;SDS011;70395;51.382;7.074;2023-07-20T12:20:26;2.87;;;2.20;;
80936;SDS011;70395;51.382;7.074;2023-07-20T12:22:56;2.43;;;2.10;;
80936;SDS011;70395;51.382;7.074;2023-07-20T12:25:32;2.13;;;1.93;;
80936;SDS011;70395;51.382;7.074;2023-07-20T12:28:04;2.00;;;1.70;;
80936;SDS011;70395;51.382;7.074;2023-07-20T12:30:51;1.97;;;1.63;;
80936;SDS011;70395;51.382;7.074;2023-07-20T12:33:21;1.30;;;1.20;;
80936;SDS011;70395;51.382;7.074;2023-07-20T12:35:47;7.40;;;1.50;;
80936;SDS011;70395;51.382;7.074;2023-07-20T12:38:15;2.30;;;1.70;;
80936;SDS011;70395;51.382;7.074;2023-07-20T12:40:41;3.47;;;1.60;;
80936;SDS011;70395;51.382;7.074;2023-07-20T12:43:07;2.57;;;1.60;;
80936;SDS011;70395;51.382;7.074;2023-07-20T12:45:33;2.47;;;1.40;;
80936;SDS011;70395;51.382;7.074;2023-07-20T12:47:59;1.10;;;0.90;;
80936;SDS011;70395;51.382;7.074;2023-07-20T12:50:26;1.40;;;1.27;;
80936;SDS011;70395;51.382;7.074;2023-07-20T12:52:52;3.93;;;1.40;;
80936;SDS011;70395;51.382;7.074;2023-07-20T12:55:18;1.40;;;1.10;;
80936;SDS011;70395;51.382;7.074;2023-07-20T12:57:45;2.50;;;1.50;;
80936;SDS011;70395;51.382;7.074;2023-07-20T13:00:13;1.70;;;1.30;;
80936;SDS011;70395;51.382;7.074;2023-07-20T13:02:41;1.93;;;1.73;;
80936;SDS011;70395;51.382;7.074;2023-07-20T13:05:08;1.83;;;1.63;;
80936;SDS011;70395;51.382;7.074;2023-07-20T13:07:35;3.30;;;1.87;;
80936;SDS011;70395;51.382;7.074;2023-07-20T13:10:04;1.63;;;1.53;;
80936;SDS011;70395;51.382;7.074;2023-07-20T13:12:31;2.27;;;1.70;;
80936;SDS011;70395;51.382;7.074;2023-07-20T13:15:00;2.10;;;1.90;;
80936;SDS011;70395;51.382;7.074;2023-07-20T13:17:30;2.40;;;2.00;;
80936;SDS011;70395;51.382;7.074;2023-07-20T13:20:01;2.80;;;2.13;;
80936;SDS011;70395;51.382;7.074;2023-07-20T13:22:32;2.00;;;1.80;;
80936;SDS011;70395;51.382;7.074;2023-07-20T13:24:59;3.33;;;1.70;;
80936;SDS011;70395;51.382;7.074;2023-07-20T13:27:24;2.13;;;1.90;;
80936;SDS011;70395;51.382;7.074;2023-07-20T13:29:51;1.90;;;1.70;;
80936;SDS011;70395;51.382;7.074;2023-07-20T13:32:18;2.73;;;1.87;;
80936;SDS011;70395;51.382;7.074;2023-07-20T13:34:44;2.43;;;1.67;;
80936;SDS011;70395;51.382;7.074;2023-07-20T13:37:11;2.43;;;1.83;;
80936;SDS011;70395;51.382;7.074;2023-07-20T13:39:37;1.90;;;1.60;;
80936;SDS011;70395;51.382;7.074;2023-07-20T13:42:04;2.20;;;1.73;;
80936;SDS011;70395;51.382;7.074;2023-07-20T13:44:31;1.87;;;1.43;;
80936;SDS011;70395;51.382;7.074;2023-07-20T13:46:57;2.43;;;1.20;;
80936;SDS011;70395;51.382;7.074;2023-07-20T13:49:23;1.70;;;1.03;;
80936;SDS011;70395;51.382;7.074;2023-07-20T13:51:49;2.33;;;1.30;;
80936;SDS011;70395;51.382;7.074;2023-07-20T13:54:15;2.90;;;1.30;;
80936;SDS011;70395;51.382;7.074;2023-07-20T13:56:41;2.00;;;1.17;;
80936;SDS011;70395;51.382;7.074;2023-07-20T13:59:06;2.70;;;1.30;;
80936;SDS011;70395;51.382;7.074;2023-07-20T14:01:32;2.23;;;1.27;;
80936;SDS011;70395;51.382;7.074;2023-07-20T14:03:59;2.80;;;1.40;;
80936;SDS011;70395;51.382;7.074;2023-07-20T14:06:26;2.27;;;1.50;;
80936;SDS011;70395;51.382;7.074;2023-07-20T14:08:55;1.90;;;1.00;;
80936;SDS011;70395;51.382;7.074;2023-07-20T14:11:22;1.47;;;1.37;;
80936;SDS011;70395;51.382;7.074;2023-07-20T14:13:49;1.73;;;1.03;;
80936;SDS011;70395;51.382;7.074;2023-07-20T14:16:18;1.80;;;1.10;;
80936;SDS011;70395;51.382;7.074;2023-07-20T14:18:44;2.23;;;1.10;;
80936;SDS011;70395;51.382;7.074;2023-07-20T14:21:12;1.13;;;1.00;;
80936;SDS011;70395;51.382;7.074;2023-07-20T14:23:38;2.17;;;1.30;;
80936;SDS011;70395;51.382;7.074;2023-07-20T14:26:04;1.80;;;1.00;;
80936;SDS011;70395;51.382;7.074;2023-07-20T14:28:30;1.70;;;1.00;;
80936;SDS011;70395;51.382;7.074;2023-07-20T14:30:57;3.00;;;1.03;;
80936;SDS011;70395;51.382;7.074;2023-07-20T14:33:23;2.03;;;0.87;;
80936;SDS011;70395;51.382;7.074;2023-07-20T14:35:49;2.23;;;1.17;;
80936;SDS011;70395;51.382;7.074;2023-07-20T14:38:15;1.53;;;1.30;;
80936;SDS011;70395;51.382;7.074;2023-07-20T14:40:40;1.53;;;1.10;;
80936;SDS011;70395;51.382;7.074;2023-07-20T14:43:06;3.23;;;1.30;;
80936;SDS011;70395;51.382;7.074;2023-07-20T14:45:33;1.90;;;1.10;;
80936;SDS011;70395;51.382;7.074;2023-07-20T14:47:58;1.50;;;0.87;;
80936;SDS011;70395;51.382;7.074;2023-07-20T14:50:24;1.90;;;1.20;;
80936;SDS011;70395;51.382;7.074;2023-07-20T14:52:50;2.50;;;1.10;;
80936;SDS011;70395;51.382;7.074;2023-07-20T14:55:16;2.50;;;1.07;;
80936;SDS011;70395;51.382;7.074;2023-07-20T14:57:42;2.40;;;1.00;;
80936;SDS011;70395;51.382;7.074;2023-07-20T15:00:08;2.00;;;1.20;;
80936;SDS011;70395;51.382;7.074;2023-07-20T15:02:35;1.70;;;1.00;;
80936;SDS011;70395;51.382;7.074;2023-07-20T15:05:02;1.50;;;1.00;;
80936;SDS011;70395;51.382;7.074;2023-07-20T15:07:32;1.60;;;0.97;;